createdAt,value
2018-12-31T00:01:07.107Z,102275.59
2018-12-31T00:06:10.601Z,102280.87
2018-12-31T00:11:14.025Z,102280.87
2018-12-31T00:16:17.455Z,102278.31
2018-12-31T00:21:20.892Z,102276.14
2018-12-31T00:26:24.326Z,102273.55
2018-12-31T00:31:27.770Z,102267.52
2018-12-31T00:36:31.242Z,102267.06
2018-12-31T00:41:34.719Z,102264.08
2018-12-31T00:46:38.165Z,102275.33
2018-12-31T00:51:41.584Z,102271.83
2018-12-31T00:56:45.019Z,102277.57
2018-12-31T01:01:48.452Z,102269.36
2018-12-31T01:06:51.878Z,102276.76
2018-12-31T01:11:55.323Z,102272.90
2018-12-31T01:16:58.747Z,102274.27
2018-12-31T01:22:02.186Z,102284.26
2018-12-31T01:27:05.629Z,102287.34
2018-12-31T01:32:09.066Z,102279.09
2018-12-31T01:37:12.512Z,102282.21
2018-12-31T01:42:16.849Z,102281.83
2018-12-31T01:47:20.356Z,102270.11
2018-12-31T01:52:23.793Z,102283.58
2018-12-31T01:57:27.223Z,102281.47
2018-12-31T02:02:30.669Z,102271.98
2018-12-31T02:07:34.156Z,102275.88
2018-12-31T02:12:37.592Z,102277.12
2018-12-31T02:17:41.051Z,102281.08
2018-12-31T02:22:44.476Z,102285.03
2018-12-31T02:27:47.917Z,102292.86
2018-12-31T02:32:51.355Z,102289.84
2018-12-31T02:37:54.847Z,102284.29
2018-12-31T02:42:58.274Z,102271.82
2018-12-31T02:48:01.694Z,102270.09
2018-12-31T02:53:05.135Z,102270.52
2018-12-31T02:58:08.816Z,102272.77
2018-12-31T03:03:12.269Z,102271.13
2018-12-31T03:08:15.694Z,102275.88
2018-12-31T03:13:19.152Z,102278.11
2018-12-31T03:18:22.670Z,102267.30
2018-12-31T03:23:26.107Z,102269.02
2018-12-31T03:28:29.534Z,102271.20
2018-12-31T03:33:33.030Z,102274.27
2018-12-31T03:38:36.465Z,102271.35
2018-12-31T03:43:39.905Z,102276.97
2018-12-31T03:48:43.347Z,102271.80
2018-12-31T03:53:46.778Z,102269.72
2018-12-31T03:58:50.219Z,102271.11
2018-12-31T04:03:53.733Z,102274.64
2018-12-31T04:08:57.163Z,102271.56
2018-12-31T04:14:00.612Z,102266.41
2018-12-31T04:19:04.124Z,102268.97
2018-12-31T04:24:07.562Z,102271.59
2018-12-31T04:29:10.988Z,102269.94
2018-12-31T04:34:14.416Z,102269.97
2018-12-31T04:39:17.851Z,102279.52
2018-12-31T04:44:21.266Z,102278.21
2018-12-31T04:49:24.732Z,102277.45
2018-12-31T04:54:28.150Z,102271.84
2018-12-31T04:59:31.585Z,102270.11
2018-12-31T05:04:35.003Z,102276.22
2018-12-31T05:09:38.427Z,102282.80
2018-12-31T05:14:41.856Z,102278.94
2018-12-31T05:19:45.303Z,102272.41
2018-12-31T05:24:48.746Z,102273.77
2018-12-31T05:29:52.438Z,102274.22
2018-12-31T05:34:55.871Z,102277.75
2018-12-31T05:39:59.315Z,102283.85
2018-12-31T05:45:02.806Z,102281.25
2018-12-31T05:50:06.357Z,102286.15
2018-12-31T05:55:09.826Z,102286.20
2018-12-31T06:00:13.383Z,102289.66
2018-12-31T06:05:16.820Z,102290.13
2018-12-31T06:10:20.258Z,102297.14
2018-12-31T06:15:23.700Z,102300.67
2018-12-31T06:20:27.141Z,102306.69
2018-12-31T06:25:30.964Z,102309.34
2018-12-31T06:30:34.398Z,102304.14
2018-12-31T06:35:37.853Z,102305.84
2018-12-31T06:40:41.271Z,102309.83
2018-12-31T06:45:44.704Z,102316.33
2018-12-31T06:50:48.142Z,102309.86
2018-12-31T06:55:51.584Z,102313.24
2018-12-31T07:00:55.028Z,102323.19
2018-12-31T07:05:58.473Z,102328.03
2018-12-31T07:11:01.985Z,102343.20
2018-12-31T07:16:05.418Z,102348.87
2018-12-31T07:21:08.846Z,102353.62
2018-12-31T07:26:12.365Z,102351.93
2018-12-31T07:31:15.795Z,102355.92
2018-12-31T07:36:19.254Z,102358.97
2018-12-31T07:41:22.766Z,102365.53
2018-12-31T07:46:26.188Z,102369.43
2018-12-31T07:51:29.632Z,102376.41
2018-12-31T07:56:33.070Z,102383.37
2018-12-31T08:01:36.605Z,102383.00
2018-12-31T08:06:40.052Z,102393.07
2018-12-31T08:11:43.520Z,102387.90
2018-12-31T08:16:46.933Z,102382.27
2018-12-31T08:21:50.358Z,102393.13
2018-12-31T08:26:53.802Z,102403.62
2018-12-31T08:31:57.236Z,102405.91
2018-12-31T08:37:00.709Z,102408.12
2018-12-31T08:42:04.193Z,102406.06
2018-12-31T08:47:07.623Z,102407.69
2018-12-31T08:52:11.062Z,102412.92
2018-12-31T08:57:14.502Z,102411.14
2018-12-31T09:02:17.928Z,102415.92
2018-12-31T09:07:21.361Z,102418.97
2018-12-31T09:12:24.819Z,102421.27
2018-12-31T09:17:28.245Z,102418.81
2018-12-31T09:22:31.686Z,102419.36
2018-12-31T09:27:35.125Z,102423.45
2018-12-31T09:32:38.570Z,102428.69
2018-12-31T09:37:42.061Z,102432.70
2018-12-31T09:42:45.555Z,102438.36
2018-12-31T09:47:49.133Z,102433.16
2018-12-31T09:52:52.572Z,102430.33
2018-12-31T09:57:56.110Z,102420.73
2018-12-31T10:02:59.533Z,102425.03
2018-12-31T10:08:02.957Z,102419.12
2018-12-31T10:13:06.392Z,102434.28
2018-12-31T10:18:09.818Z,102438.59
2018-12-31T10:23:13.289Z,102435.02
2018-12-31T10:28:16.826Z,102420.42
2018-12-31T10:33:20.253Z,102414.58
2018-12-31T10:38:23.746Z,102410.06
2018-12-31T10:43:27.197Z,102419.65
2018-12-31T10:48:30.626Z,102424.43
2018-12-31T10:53:34.071Z,102417.05
2018-12-31T10:58:37.500Z,102413.67
2018-12-31T11:03:42.048Z,102412.34
2018-12-31T11:08:45.547Z,102412.77
2018-12-31T11:13:48.984Z,102417.92
2018-12-31T11:18:52.422Z,102413.45
2018-12-31T11:23:55.859Z,102411.79
2018-12-31T11:28:59.350Z,102406.50
2018-12-31T11:34:02.867Z,102401.30
2018-12-31T11:39:07.133Z,102401.38
2018-12-31T11:44:10.591Z,102398.05
2018-12-31T11:49:14.020Z,102395.92
2018-12-31T11:54:17.458Z,102397.77
2018-12-31T11:59:20.946Z,102393.37
2018-12-31T12:04:24.398Z,102385.92
2018-12-31T12:09:27.830Z,102368.55
2018-12-31T12:14:31.278Z,102353.50
2018-12-31T12:19:34.707Z,102351.31
2018-12-31T12:24:38.149Z,102359.35
2018-12-31T12:29:41.586Z,102358.16
2018-12-31T12:34:45.022Z,102359.94
2018-12-31T12:39:48.645Z,102358.59
2018-12-31T12:44:52.156Z,102362.92
2018-12-31T12:49:55.912Z,102366.73
2018-12-31T12:54:59.374Z,102367.19
2018-12-31T13:00:04.002Z,102369.77
2018-12-31T13:05:07.571Z,102368.39
2018-12-31T13:10:11.505Z,102366.19
2018-12-31T13:15:15.199Z,102370.17
2018-12-31T13:20:19.032Z,102362.36
2018-12-31T13:25:22.551Z,102367.09
2018-12-31T13:30:25.993Z,102364.96
2018-12-31T13:35:29.481Z,102362.88
2018-12-31T13:40:34.379Z,102359.47
2018-12-31T13:45:37.843Z,102366.25
2018-12-31T13:50:41.320Z,102371.44
2018-12-31T13:55:44.860Z,102371.57
2018-12-31T14:00:48.305Z,102375.58
2018-12-31T14:05:53.493Z,102364.76
2018-12-31T14:10:56.948Z,102368.27
2018-12-31T14:16:00.386Z,102363.98
2018-12-31T14:21:03.901Z,102366.84
2018-12-31T14:26:07.349Z,102366.84
2018-12-31T14:31:10.791Z,102359.86
2018-12-31T14:36:14.222Z,102350.77
2018-12-31T14:41:17.663Z,102360.70
2018-12-31T14:46:23.039Z,102357.66
2018-12-31T14:51:26.278Z,102361.52
2018-12-31T14:56:29.730Z,102363.08
2018-12-31T15:01:33.177Z,102364.34
2018-12-31T15:06:36.632Z,102367.73
2018-12-31T15:11:40.072Z,102370.69
2018-12-31T15:16:43.527Z,102384.50
2018-12-31T15:21:46.993Z,102386.17
2018-12-31T15:26:50.441Z,102387.00
2018-12-31T15:31:53.959Z,102389.98
2018-12-31T15:36:57.398Z,102385.60
2018-12-31T15:42:02.401Z,102393.84
2018-12-31T15:47:09.289Z,102390.28
2018-12-31T15:52:12.745Z,102398.47
2018-12-31T15:57:16.411Z,102396.74
2018-12-31T16:02:22.901Z,102398.82
2018-12-31T16:07:26.613Z,102399.34
2018-12-31T16:12:30.059Z,102399.22
2018-12-31T16:17:33.882Z,102384.00
2018-12-31T16:22:39.393Z,102380.02
2018-12-31T16:27:43.044Z,102376.96
2018-12-31T16:32:46.480Z,102384.30
2018-12-31T16:37:49.893Z,102381.64
2018-12-31T16:42:53.352Z,102384.24
2018-12-31T16:47:56.784Z,102380.20
2018-12-31T16:53:00.225Z,102380.66
2018-12-31T16:58:03.721Z,102374.10
2018-12-31T17:03:07.152Z,102368.00
2018-12-31T17:08:10.587Z,102366.30
2018-12-31T17:13:14.046Z,102364.88
2018-12-31T17:18:17.570Z,102364.44
2018-12-31T17:23:21.076Z,102366.16
2018-12-31T17:28:24.505Z,102362.23
2018-12-31T17:33:29.158Z,102362.17
2018-12-31T17:38:32.758Z,102359.58
2018-12-31T17:43:36.190Z,102353.87
2018-12-31T17:48:39.615Z,102347.84
2018-12-31T17:53:43.447Z,102358.22
2018-12-31T17:58:46.877Z,102354.74
2018-12-31T18:03:50.763Z,102359.13
2018-12-31T18:08:54.214Z,102358.67
2018-12-31T18:13:58.705Z,102356.92
2018-12-31T18:19:02.150Z,102361.23
2018-12-31T18:24:05.587Z,102360.40
2018-12-31T18:29:09.021Z,102361.27
2018-12-31T18:34:12.457Z,102359.08
2018-12-31T18:39:15.916Z,102370.38
2018-12-31T18:44:19.406Z,102364.28
2018-12-31T18:49:22.805Z,102363.41
2018-12-31T18:54:26.374Z,102361.56
2018-12-31T18:59:29.784Z,102364.59
2018-12-31T19:04:33.224Z,102363.31
2018-12-31T19:09:37.506Z,102363.69
2018-12-31T19:14:40.934Z,102378.14
2018-12-31T19:19:44.399Z,102375.45
2018-12-31T19:24:47.817Z,102374.60
2018-12-31T19:29:51.326Z,102380.63
2018-12-31T19:34:54.776Z,102381.45
2018-12-31T19:39:58.297Z,102380.95
2018-12-31T19:45:01.726Z,102372.69
2018-12-31T19:50:05.697Z,102359.13
2018-12-31T19:55:09.141Z,102355.11
2018-12-31T20:00:12.968Z,102348.17
2018-12-31T20:05:16.366Z,102341.94
2018-12-31T20:10:19.807Z,102342.05
2018-12-31T20:15:23.256Z,102338.06
2018-12-31T20:20:26.703Z,102334.13
2018-12-31T20:25:30.142Z,102323.70
2018-12-31T20:30:33.557Z,102323.19
2018-12-31T20:35:37.018Z,102330.12
2018-12-31T20:40:40.462Z,102329.92
2018-12-31T20:45:43.902Z,102335.04
2018-12-31T20:50:47.320Z,102335.41
2018-12-31T20:55:50.776Z,102327.21
2018-12-31T21:00:54.274Z,102327.97
2018-12-31T21:05:57.697Z,102328.82
2018-12-31T21:11:01.103Z,102329.36
2018-12-31T21:16:05.524Z,102339.22
2018-12-31T21:21:09.099Z,102337.87
2018-12-31T21:26:12.605Z,102324.87
2018-12-31T21:31:16.048Z,102310.79
2018-12-31T21:36:19.486Z,102303.27
2018-12-31T21:41:23.309Z,102304.69
2018-12-31T21:46:26.748Z,102299.31
2018-12-31T21:51:30.981Z,102291.94
2018-12-31T21:56:34.588Z,102280.27
2018-12-31T22:01:38.009Z,102289.73
2018-12-31T22:06:41.463Z,102269.31
2018-12-31T22:11:44.899Z,102273.18
2018-12-31T22:16:48.340Z,102268.41
2018-12-31T22:21:51.792Z,102256.63
2018-12-31T22:26:55.224Z,102249.77
2018-12-31T22:31:58.660Z,102244.98
2018-12-31T22:37:02.086Z,102242.33
2018-12-31T22:42:05.530Z,102242.33
2018-12-31T22:47:09.358Z,102240.13
2018-12-31T22:52:12.801Z,102239.28
2018-12-31T22:57:16.638Z,102232.33
2018-12-31T23:02:20.105Z,102225.78
2018-12-31T23:07:23.540Z,102217.62
2018-12-31T23:12:27.001Z,102216.74
2018-12-31T23:17:30.467Z,102215.87
2018-12-31T23:22:33.896Z,102218.89
2018-12-31T23:27:37.342Z,102215.84
2018-12-31T23:32:40.768Z,102203.21
2018-12-31T23:37:44.203Z,102201.91
2018-12-31T23:42:47.751Z,102196.35
2018-12-31T23:47:51.225Z,102194.17
2018-12-31T23:52:54.685Z,102193.19
2018-12-31T23:57:58.134Z,102199.66
